MYGF METAR and TAF weather

Enter ICAO airport designator
Station Type Date Time Source
MYGF METAR 2020/11/27 02:00 UTC NOAA

MYGF 270200Z AUTO 08004KT 9999 SCT066/// 22/21 A3012


Station Type Date Time Source
MYGF Decoded METAR 2020/11/27 02:00 UTC NOAA

Freeport, Grand Bahama, Bahamas, The (MYGF) 26-33N 078-42W 11M
Nov 26, 2020 - 09:00 PM EST / 2020.11.27 0200 UTC
Wind: from the E (080 degrees) at 5 MPH (4 KT):0
Visibility: greater than 7 mile(s):0
Sky conditions: partly cloudy
Temperature: 71 F (22 C)
Dew Point: 69 F (21 C)
Relative Humidity: 94%
Pressure (altimeter): 30.12 in. Hg (1019 hPa)
ob: MYGF 270200Z AUTO 08004KT 9999 SCT066/// 22/21 A3012
cycle: 2

Station Type Date Time Source
MYGF TAF 2020/11/26 18:40 UTC NOAA

MYGF 261740Z 2618/2718 11008KT 9999 VCSH SCT030 SCT050
BECMG 2704/2706 12005KT

Example: see airport list